Zprávy METAR z letišť v České republice

LKPR - Praha Ruzyně, Česká republika
Vzdálenost od této stanice: JV 30km
Aktualizováno: 18.08.2018 17:30
 
Teplota vzduchu: 29°C
Vítr: S 15 km/h
Rosný bod: 11°C
Vlhkost vzduchu: 33%
Tlak vzduchu: 1019 hPa
Stav počasí: Jasno
Oblačnost: jasná obloha
Viditelnost: více než 10 km
2018/08/18 15:30 LKPR 181530Z 36008KT 330V050 CAVOK 29/11 Q1019 NOSIG
LKTB - Brno Tuřany, Česká republika
Vzdálenost od této stanice: VJV 234km
Aktualizováno: 18.08.2018 17:30
 
Teplota vzduchu: 30°C
Vítr: VSV 22 km/h
Rosný bod: 12°C
Vlhkost vzduchu: 33%
Tlak vzduchu: 1018 hPa
Stav počasí: Jasno
Oblačnost: jasná obloha
Viditelnost: více než 10 km
2018/08/18 15:30 LKTB 181530Z 06012KT CAVOK 30/12 Q1018 NOSIG
 
LKKV - Karlovy Vary, Česká republika
Vzdálenost od této stanice: Z 72km
Aktualizováno: 18.08.2018 17:30
 
Teplota vzduchu: 24°C
Vítr: S 15 km/h
Rosný bod: 16°C
Vlhkost vzduchu: 61%
Tlak vzduchu: 1021 hPa
Stav počasí: Jasno
Oblačnost: jasná obloha
Viditelnost: více než 10 km
2018/08/18 15:30 LKKV 181530Z 01008KT CAVOK 24/16 Q1021
LKMT - Ostrava Mošnov, Česká republika
Vzdálenost od této stanice: VJV 306km
Aktualizováno: 18.08.2018 17:30
 
Teplota vzduchu: 28°C
Index horka: 28°C
Vítr: SSV 9 km/h
Rosný bod: 14°C
Vlhkost vzduchu: 42%
Tlak vzduchu: 1019 hPa
Stav počasí: Jasno
Oblačnost: jasná obloha
Viditelnost: více než 10 km
2018/08/18 15:30 LKMT 181530Z 02005KT 340V050 CAVOK 28/14 Q1019 NOSIG
 
LKPD - Pardubice, Česká republika
Vzdálenost od této stanice: VJV 132km
Aktualizováno: 18.08.2018 17:00
 
Teplota vzduchu: 30°C
Vítr: SZ 11 km/h
Rosný bod: 10°C
Vlhkost vzduchu: 29%
Tlak vzduchu: 1018 hPa
Stav počasí: Jasno
Oblačnost: jasná obloha
Viditelnost: více než 10 km
2018/08/18 15:00 LKPD 181500Z 31006KT 270V360 CAVOK 30/10 Q1018 NOSIG RMK BLU BLU
LKKB - Praha Kbely, Česká republika
Vzdálenost od této stanice: VJV 46km
Aktualizováno: 18.08.2018 17:00
 
Teplota vzduchu: 29°C
Vítr: SSV 6 km/h
Rosný bod: 11°C
Vlhkost vzduchu: 33%
Tlak vzduchu: 1019 hPa
Stav počasí: Jasno
Oblačnost: jasná obloha
Viditelnost: více než 10 km
2018/08/18 15:00 LKKB 181500Z 02003KT 270V070 CAVOK 29/11 Q1019 NOSIG
 
LKCV - Čáslav, Česká republika
Vzdálenost od této stanice: VJV 110km
Aktualizováno: 18.08.2018 17:00
 
Teplota vzduchu: 31°C
Vítr: ZSZ 11 km/h
Rosný bod: 13°C
Vlhkost vzduchu: 33%
Tlak vzduchu: 1018 hPa
Stav počasí: Jasno
Oblačnost: jasná obloha
Viditelnost: více než 10 km
2018/08/18 15:00 LKCV 181500Z 29006KT 260V350 CAVOK 31/13 Q1018 NOSIG RMK BLU BLU
LKNA - Náměšť n. Osl., Česká republika
Vzdálenost od této stanice: JV 200km
Aktualizováno: 18.08.2018 17:00
 
Teplota vzduchu: 30°C
Vítr: ZJZ 9 km/h
Rosný bod: 9°C
Vlhkost vzduchu: 27%
Tlak vzduchu: 1019 hPa
Stav počasí: Jasno
Oblačnost: jasná obloha
Viditelnost: více než 10 km
2018/08/18 15:00 LKNA 181500Z 24005KT 190V270 CAVOK 30/09 Q1019 NOSIG
 
LKLN - Plzeň Líně, Česká republika
Vzdálenost od této stanice: JZ 80km
Aktualizováno: 18.08.2018 17:00
 
Teplota vzduchu: 30°C
Vítr: VSV 9 km/h
Rosný bod: 11°C
Vlhkost vzduchu: 31%
Tlak vzduchu: 1019 hPa
Stav počasí: Jasno
Oblačnost: jasná obloha
Viditelnost: více než 10 km
2018/08/18 15:00 LKLN 181500Z AUTO 07005KT 350V100 CAVOK 30/11 Q1019
LKVO - Vodochody, Česká republika
Vzdálenost od této stanice: V 34km
Aktualizováno: 18.08.2018 13:00
Není aktuální
 
Teplota vzduchu: 24°C
Vítr: S 15 km/h
Rosný bod: 13°C
Vlhkost vzduchu: 50%
Tlak vzduchu: 1021 hPa
Stav počasí: Jasno
Oblačnost: jasná obloha
Viditelnost: více než 10 km
2018/08/18 11:00 LKVO 181100Z 35008KT 290V100 CAVOK 24/13 Q1021

Metar display script od Saratoga-Weather.org
upravil a přeložil Miloš Jiřík